Airfield :
LOGIN :

Register | Disclaimer

   EN    FR    IT 

 










Legend :    VFR   Marginal VFR   IFR   Intensive IFR   Very Intensive IFR
Visi :
Ceiling :
>= 8 km
>= 3000ft
5 to 8 km
1000 to 3000 ft
1500m to 5 km
500 to 1000 ft
800 to 1500m
200 to 500 ft
< 800m
< 200 ft
Symbols :   Thunderstorms  Fog  Heavy snow  Heavy precipitations  Wind > 20 kt
SIGMETs :     Misc.  Thunderstorms  Icing  Turbulence  Mountain Waves  Volcanic Ashes






- Airport Elevation : 171 ft
- IATA code : EGC


LFBE - Bergerac

CURRENT METAR :
  • 192330Z AUTO 06003KT 9000 NSC 03/02 Q1027

EXPIRED METARs :
  • 192300Z AUTO 08004KT 6000 NSC 03/03 Q1027
  • 192230Z AUTO 07003KT CAVOK 04/03 Q1028
  • 192200Z AUTO 07003KT 9000 NSC 04/03 Q1028
  • 192130Z AUTO 13002KT CAVOK 05/03 Q1028

TAF TAF LFBE
Valid from the 19 at 18:00 until the 20 at 18:00 UTC


191700Z 1918/2018 26010KT CAVOK
BECMG 1923/2001 VRB02KT 3000 BR BKN003
BECMG 2001/2003 08005KT
PROB40
TEMPO 2001/2010 0500 FG VV///
BECMG 2010/2012 26005KT



MET'MAP, your aeronautical weather chart ! - Copyright ORBIFLY December 2007 - Disclaimer

ORBIFLY MET'MAP TEAM :

Programming & Development : Alexandra Zaïnal
Concept & original design : Baudouin d'Aumeries
Assistance for programming : Marc-Olivier Méhu
Technical & hardware support : Manuel Goepfert

Contact : metmap@orbifly.com




SOURCES & CREDITS :

   NOAA